Terminal Aerodrome Forecast
Issued by NWS

Home | Current Version | Previous Version | Graphics & Text | Print | Product List | Glossary On
Versions: 1 2 3 4 5 6 7 8 9 10 11 12 13 14 15 16 17
000
FTUS43 KGRB 030534
TAFATW
TAF
KATW 030534Z 0306/0406 18005KT P6SM VCSH SCT030 BKN090
      TEMPO 0306/0309 2SM TSRA BR BKN030CB
     FM030900 18004KT 3SM BR VCSH SCT009 BKN030
      TEMPO 0309/0313 1SM -TSRA BR BKN009CB
     FM031500 12005KT P6SM VCSH BKN020
     FM031800 15006KT P6SM VCSH SCT020 BKN040
     FM032200 09004KT P6SM SCT040 SCT100=

USA.gov is the U.S. government's official web portal to all federal, state and local government web resources and services.